Time;durP1;ratioP1;P1;durP2;ratioP2;P2;SDS_P1;SDS_P2;PMS_P1;PMS_P2;Temp;Humidity;BMP_temperature;BMP_pressure;BME280_temperature;BME280_humidity;BME280_pressure;Samples;Min_cycle;Max_cycle;Signal;HPM_P1;HPM_P2
2022/08/27 00:01:49;;;;;;;30.37;14.43;;;;;;;14.26;87.60;94344.48;1663649;84;21179;-48
2022/08/27 00:04:17;;;;;;;26.95;14.15;;;;;;;14.20;87.93;94339.49;1663371;85;21505;-49
2022/08/27 00:06:45;;;;;;;24.35;14.25;;;;;;;14.18;88.28;94348.26;1663640;85;21462;-49
2022/08/27 00:09:14;;;;;;;34.78;14.87;;;;;;;14.20;88.40;94338.11;1663444;86;21035;-49
2022/08/27 00:11:43;;;;;;;29.65;16.95;;;;;;;14.18;88.35;94337.20;1663395;85;21018;-49
2022/08/27 00:14:11;;;;;;;41.33;18.02;;;;;;;14.15;88.50;94340.14;1663491;85;21254;-50
2022/08/27 00:16:39;;;;;;;36.28;15.45;;;;;;;14.13;88.89;94343.98;1663609;86;21441;-50
2022/08/27 00:19:09;;;;;;;36.23;16.17;;;;;;;14.09;88.86;94351.73;1663470;85;20967;-48
2022/08/27 00:21:38;;;;;;;30.17;14.78;;;;;;;14.04;89.27;94346.27;1663818;86;20978;-49
2022/08/27 00:24:06;;;;;;;36.40;16.10;;;;;;;14.04;89.30;94344.11;1663424;84;20971;-50
2022/08/27 00:26:35;;;;;;;27.98;15.85;;;;;;;14.03;89.40;94351.63;1663739;86;21460;-49
2022/08/27 00:29:03;;;;;;;26.80;14.25;;;;;;;14.05;89.72;94344.25;1651794;86;21066;-49
2022/08/27 00:31:31;;;;;;;25.12;12.35;;;;;;;14.06;89.37;94345.77;1663629;86;21038;-49
2022/08/27 00:33:59;;;;;;;32.60;13.03;;;;;;;14.06;89.00;94345.16;1663467;86;20971;-49
2022/08/27 00:36:27;;;;;;;28.10;12.33;;;;;;;14.09;88.67;94347.58;1663381;86;20958;-49
2022/08/27 00:38:55;;;;;;;21.50;11.75;;;;;;;14.12;88.59;94346.61;1663432;86;21146;-49
2022/08/27 00:41:23;;;;;;;17.32;10.15;;;;;;;14.12;88.54;94338.31;1663412;86;21019;-49
2022/08/27 00:43:56;;;;;;;26.97;13.32;;;;;;;14.10;88.14;94343.56;1663346;84;21014;-49
2022/08/27 00:46:42;;;;;;;;;;;;;;;14.06;88.02;94341.02;1666136;85;21039;-50
2022/08/27 00:49:24;;;;;;;22.37;11.57;;;;;;;14.08;88.32;94342.68;1663351;86;20202;-48
2022/08/27 00:52:03;;;;;;;24.63;12.45;;;;;;;14.05;88.43;94345.63;1663399;86;21318;-48
2022/08/27 00:54:31;;;;;;;19.98;12.50;;;;;;;14.01;88.54;94343.05;1663418;86;20998;-49
2022/08/27 00:56:59;;;;;;;20.45;11.43;;;;;;;14.01;88.27;94345.07;1663423;85;21015;-49
2022/08/27 00:59:31;;;;;;;16.30;10.20;;;;;;;13.98;88.38;94344.65;1663410;86;20971;-49
2022/08/27 01:02:18;;;;;;;17.85;9.40;;;;;;;14.00;88.25;94341.53;1664047;86;20963;-49
2022/08/27 01:04:57;;;;;;;20.37;10.08;;;;;;;14.00;87.80;94344.30;1644698;86;21160;-48
2022/08/27 01:07:25;;;;;;;15.60;10.05;;;;;;;13.99;87.64;94348.30;1663581;86;20987;-49
2022/08/27 01:09:53;;;;;;;14.80;10.48;;;;;;;13.96;87.47;94349.27;1663362;86;20991;-49
2022/08/27 01:12:21;;;;;;;20.80;10.43;;;;;;;13.95;87.64;94343.59;1663665;86;21034;-49
2022/08/27 01:14:49;;;;;;;18.30;9.88;;;;;;;13.92;87.29;94343.77;1663487;86;20974;-49
2022/08/27 01:17:19;;;;;;;17.75;11.68;;;;;;;13.86;87.33;94346.47;1663376;85;21264;-49
2022/08/27 01:19:57;;;;;;;16.62;8.98;;;;;;;13.85;87.57;94345.55;1663402;86;20971;-49
2022/08/27 01:22:52;;;;;;;17.87;8.45;;;;;;;13.81;87.69;94340.84;1663638;85;21117;-48
2022/08/27 01:25:22;;;;;;;14.58;7.10;;;;;;;13.73;87.99;94342.45;1663347;85;21082;-49
2022/08/27 01:27:51;;;;;;;11.60;6.75;;;;;;;13.69;88.32;94344.04;1663739;85;21549;-49
2022/08/27 01:30:20;;;;;;;13.10;8.50;;;;;;;13.67;88.43;94348.51;1663453;86;21138;-48
2022/08/27 01:32:49;;;;;;;16.00;7.22;;;;;;;13.64;88.87;94347.45;1663686;85;20999;-48
2022/08/27 01:35:17;;;;;;;13.40;7.70;;;;;;;13.63;89.15;94346.56;1663459;84;20975;-48
2022/08/27 01:37:48;;;;;;;15.00;8.63;;;;;;;13.59;89.08;94341.84;1664065;86;20974;-48
2022/08/27 01:40:18;;;;;;;14.65;8.33;;;;;;;13.51;89.16;94333.77;1663476;85;21498;-48
2022/08/27 01:42:50;;;;;;;12.98;7.62;;;;;;;13.45;89.26;94341.95;1663702;85;21254;-49
2022/08/27 01:45:31;;;;;;;17.02;8.43;;;;;;;13.37;89.28;94337.28;1662565;84;20967;-49
2022/08/27 01:47:59;;;;;;;14.10;8.30;;;;;;;13.30;89.61;94332.13;1664148;86;20970;-48
2022/08/27 01:50:30;;;;;;;23.05;10.88;;;;;;;13.22;89.92;94332.34;1663475;84;20986;-49
2022/08/27 01:53:12;;;;;;;21.82;12.05;;;;;;;13.18;90.45;94334.53;1652359;86;20971;-48
2022/08/27 01:55:40;;;;;;;25.17;10.98;;;;;;;13.16;90.59;94339.16;1663641;85;21562;-49
2022/08/27 01:58:09;;;;;;;22.75;13.53;;;;;;;13.16;90.68;94342.53;1663692;85;21184;-49
2022/08/27 02:00:40;;;;;;;23.38;10.75;;;;;;;13.16;90.82;94338.39;1663614;85;21419;-49
2022/08/27 02:03:08;;;;;;;18.55;11.25;;;;;;;13.18;91.17;94331.77;1663577;86;20974;-49
2022/08/27 02:05:38;;;;;;;19.95;12.43;;;;;;;13.23;91.05;94326.98;1663573;86;21455;-49
2022/08/27 02:08:07;;;;;;;16.77;10.50;;;;;;;13.25;90.87;94324.52;1652586;84;20983;-49
2022/08/27 02:10:38;;;;;;;16.05;9.53;;;;;;;13.29;90.75;94327.21;1663446;86;21031;-49
2022/08/27 02:13:06;;;;;;;19.37;11.33;;;;;;;13.29;90.59;94333.38;1663829;85;21006;-49
2022/08/27 02:15:36;;;;;;;21.12;11.88;;;;;;;13.24;90.63;94325.75;1663468;86;21006;-49
2022/08/27 02:18:04;;;;;;;26.00;12.45;;;;;;;13.19;91.06;94327.77;1663689;86;21475;-49
2022/08/27 02:20:32;;;;;;;32.88;12.68;;;;;;;13.15;91.11;94327.97;1663892;84;21758;-49
2022/08/27 02:23:00;;;;;;;27.00;12.37;;;;;;;13.10;91.20;94325.10;1674665;85;21089;-49
2022/08/27 02:25:29;;;;;;;26.15;13.00;;;;;;;13.06;91.08;94328.03;1663491;86;20979;-49
2022/08/27 02:27:58;;;;;;;21.93;10.63;;;;;;;13.04;91.04;94324.23;1663724;86;21151;-49
2022/08/27 02:30:27;;;;;;;30.10;12.37;;;;;;;13.02;91.25;94325.30;1675185;85;21415;-49
2022/08/27 02:32:54;;;;;;;24.32;11.63;;;;;;;12.97;91.67;94319.06;1663485;86;21151;-49
2022/08/27 02:35:23;;;;;;;21.25;11.18;;;;;;;12.96;91.79;94323.06;1663351;85;21011;-49
2022/08/27 02:37:51;;;;;;;21.57;10.82;;;;;;;12.95;91.84;94324.30;1663721;85;21499;-49
2022/08/27 02:40:21;;;;;;;17.32;10.70;;;;;;;12.96;92.03;94323.06;1663447;85;21053;-49
2022/08/27 02:42:50;;;;;;;15.32;9.38;;;;;;;12.99;91.82;94320.73;1652241;86;21018;-50
2022/08/27 02:45:19;;;;;;;17.40;10.05;;;;;;;13.00;91.60;94315.34;1663710;84;21278;-50
2022/08/27 02:47:48;;;;;;;15.32;9.40;;;;;;;13.00;91.17;94314.75;1663266;86;20955;-49
2022/08/27 02:50:16;;;;;;;24.37;11.80;;;;;;;12.98;91.08;94310.31;1663771;85;21495;-48
2022/08/27 02:52:44;;;;;;;18.98;9.80;;;;;;;13.01;91.47;94320.41;1663709;85;21467;-48
2022/08/27 02:55:13;;;;;;;13.55;8.23;;;;;;;13.07;90.98;94319.14;1663546;86;21042;-48
2022/08/27 02:57:41;;;;;;;19.23;9.68;;;;;;;13.04;90.44;94318.08;1663864;86;21569;-48
2022/08/27 03:00:11;;;;;;;15.50;9.53;;;;;;;12.99;90.50;94313.83;1663703;85;21006;-51
2022/08/27 03:02:41;;;;;;;20.77;10.53;;;;;;;12.97;90.61;94321.22;1663378;85;21085;-48
2022/08/27 03:05:10;;;;;;;19.23;9.50;;;;;;;12.95;90.68;94320.93;1663740;86;20975;-49
2022/08/27 03:07:39;;;;;;;23.07;10.43;;;;;;;12.91;90.89;94314.77;1663717;85;21011;-48
2022/08/27 03:10:07;;;;;;;23.70;9.78;;;;;;;12.90;91.02;94320.16;1663569;86;21468;-49
2022/08/27 03:12:35;;;;;;;17.90;9.65;;;;;;;12.91;91.60;94322.31;1663619;86;20970;-48
2022/08/27 03:15:05;;;;;;;14.93;9.38;;;;;;;12.88;91.33;94314.98;1663645;85;21015;-48
2022/08/27 03:20:21;;;;;;;21.75;11.43;;;;;;;12.79;91.16;94313.64;1663494;85;21014;-48
2022/08/27 03:22:50;;;;;;;16.35;10.25;;;;;;;12.75;91.14;94315.83;1663538;85;21160;-48
2022/08/27 03:25:18;;;;;;;17.07;10.13;;;;;;;12.77;91.16;94314.73;1663674;86;20961;-49
2022/08/27 03:27:46;;;;;;;28.00;11.05;;;;;;;12.79;91.04;94310.28;1663753;85;21098;-48
2022/08/27 03:30:17;;;;;;;17.52;9.20;;;;;;;12.81;91.17;94308.42;1663526;86;21019;-49
2022/08/27 03:32:45;;;;;;;17.87;9.10;;;;;;;12.82;91.20;94316.84;1663711;84;21494;-48
2022/08/27 03:35:13;;;;;;;21.85;9.85;;;;;;;12.82;90.90;94320.98;1663754;86;21274;-49
2022/08/27 03:37:42;;;;;;;13.48;9.30;;;;;;;12.83;90.96;94327.42;1663372;85;21078;-49
2022/08/27 03:40:11;;;;;;;15.45;9.73;;;;;;;12.88;91.03;94321.88;1663589;85;21629;-49
2022/08/27 03:42:40;;;;;;;18.05;9.88;;;;;;;12.91;90.59;94327.83;1663502;86;20967;-48
2022/08/27 03:45:09;;;;;;;14.10;9.58;;;;;;;12.88;90.26;94322.63;1663778;86;20955;-48
2022/08/27 03:47:37;;;;;;;19.20;8.95;;;;;;;12.90;90.21;94324.92;1663541;86;21262;-48
2022/08/27 03:50:06;;;;;;;21.23;10.25;;;;;;;12.92;89.93;94322.45;1652517;86;20974;-49
2022/08/27 03:52:35;;;;;;;28.87;12.07;;;;;;;12.88;89.96;94322.63;1663417;85;21549;-49
2022/08/27 03:55:04;;;;;;;23.30;11.73;;;;;;;12.87;90.35;94323.86;1663647;85;21088;-48
2022/08/27 03:57:32;;;;;;;23.25;12.43;;;;;;;12.94;90.40;94326.91;1663538;85;21002;-49
2022/08/27 04:00:01;;;;;;;23.05;10.03;;;;;;;12.95;90.07;94325.67;1663686;86;21285;-48
2022/08/27 04:02:30;;;;;;;18.70;9.08;;;;;;;12.98;89.83;94326.11;1663334;85;21006;-48
2022/08/27 04:04:58;;;;;;;17.98;9.13;;;;;;;12.98;89.68;94322.74;1663689;85;21439;-48
2022/08/27 04:07:29;;;;;;;21.85;13.90;;;;;;;12.98;89.79;94325.50;1663809;86;20966;-48
2022/08/27 04:09:57;;;;;;;22.37;12.70;;;;;;;12.98;90.16;94329.64;1663874;86;21431;-49
2022/08/27 04:12:26;;;;;;;13.20;9.08;;;;;;;13.03;90.32;94333.13;1663355;86;21289;-49
2022/08/27 04:14:54;;;;;;;14.95;8.15;;;;;;;13.07;89.89;94334.33;1674668;84;21015;-49
2022/08/27 04:17:22;;;;;;;17.12;8.28;;;;;;;13.04;89.77;94340.81;1663522;84;21510;-49
2022/08/27 04:19:51;;;;;;;23.83;9.18;;;;;;;13.02;89.59;94332.20;1674892;84;21019;-48
2022/08/27 04:22:19;;;;;;;18.32;8.90;;;;;;;13.01;89.68;94333.44;1663418;85;21015;-49
2022/08/27 04:24:48;;;;;;;30.85;10.25;;;;;;;13.05;89.83;94334.05;1663644;85;21173;-49
2022/08/27 04:27:16;;;;;;;23.27;9.73;;;;;;;13.11;89.77;94331.52;1663669;86;20963;-49
2022/08/27 04:29:44;;;;;;;22.98;10.72;;;;;;;13.18;89.78;94325.64;1663927;85;21042;-50
2022/08/27 04:32:13;;;;;;;21.77;12.60;;;;;;;13.28;89.86;94333.98;1651835;86;21026;-47
2022/08/27 04:34:42;;;;;;;22.60;10.10;;;;;;;13.40;89.63;94328.03;1663392;85;21027;-50
2022/08/27 04:37:10;;;;;;;20.77;9.53;;;;;;;13.63;89.99;94331.36;1663412;85;21417;-48
2022/08/27 04:39:39;;;;;;;26.68;10.23;;;;;;;14.10;89.33;94324.98;1663583;86;20996;-49
2022/08/27 04:42:07;;;;;;;18.57;11.38;;;;;;;14.30;87.28;94326.45;1663545;85;20984;-49
2022/08/27 04:44:36;;;;;;;21.48;9.48;;;;;;;14.27;86.27;94326.03;1663241;86;47448;-50
2022/08/27 04:47:05;;;;;;;28.05;10.80;;;;;;;14.17;85.84;94319.70;1663426;86;21082;-49
2022/08/27 04:49:33;;;;;;;20.52;8.78;;;;;;;14.10;86.01;94330.52;1663655;85;21085;-50
2022/08/27 04:52:01;;;;;;;14.63;8.05;;;;;;;14.08;86.05;94326.69;1651806;86;21039;-49
2022/08/27 04:54:29;;;;;;;15.90;8.58;;;;;;;14.04;86.03;94325.52;1663413;86;21462;-49
2022/08/27 04:56:57;;;;;;;12.75;8.83;;;;;;;14.03;85.89;94324.61;1663320;85;21072;-49
2022/08/27 04:59:24;;;;;;;17.32;8.48;;;;;;;14.03;85.86;94332.91;1663368;85;21087;-49
2022/08/27 05:01:53;;;;;;;18.67;8.88;;;;;;;14.07;85.92;94326.55;1663409;85;21528;-49
2022/08/27 05:04:21;;;;;;;22.35;9.05;;;;;;;14.08;85.82;94321.16;1652121;86;21103;-50
2022/08/27 05:06:50;;;;;;;24.90;9.98;;;;;;;14.12;86.03;94327.25;1663920;85;20959;-49
2022/08/27 05:09:17;;;;;;;18.77;9.73;;;;;;;14.17;86.07;94320.45;1663377;85;21431;-48
2022/08/27 05:11:47;;;;;;;14.00;8.88;;;;;;;14.24;85.92;94313.77;1663386;85;21518;-48
2022/08/27 05:14:18;;;;;;;23.55;9.15;;;;;;;14.28;85.80;94318.47;1663432;86;21306;-48
2022/08/27 05:16:48;;;;;;;23.12;8.90;;;;;;;14.32;85.75;94316.29;1663489;85;28140;-48
2022/08/27 05:19:17;;;;;;;21.35;9.90;;;;;;;14.35;85.66;94320.86;1652057;86;21028;-49
2022/08/27 05:21:49;;;;;;;15.70;8.73;;;;;;;14.37;85.66;94308.69;1663900;86;20993;-50
2022/08/27 05:24:17;;;;;;;21.65;9.25;;;;;;;14.40;85.71;94309.09;1663580;86;21242;-48
2022/08/27 05:26:46;;;;;;;23.00;9.38;;;;;;;14.46;85.76;94311.45;1663420;86;21310;-49
2022/08/27 05:29:14;;;;;;;20.15;9.83;;;;;;;14.55;85.58;94318.27;1663444;84;21027;-49
2022/08/27 05:31:43;;;;;;;23.98;9.28;;;;;;;14.66;85.11;94321.80;1663535;86;21123;-48
2022/08/27 05:34:12;;;;;;;17.85;10.00;;;;;;;14.75;84.96;94315.51;1663794;85;21061;-49
2022/08/27 05:36:40;;;;;;;24.47;9.18;;;;;;;14.82;84.76;94310.19;1663714;86;21450;-49
2022/08/27 05:39:09;;;;;;;16.35;9.58;;;;;;;14.89;84.60;94316.07;1663844;86;21258;-50
2022/08/27 05:41:38;;;;;;;23.27;8.78;;;;;;;14.96;84.11;94317.03;1663509;86;20955;-50
2022/08/27 05:44:08;;;;;;;22.95;9.95;;;;;;;15.01;83.80;94308.02;1663516;86;20978;-50
2022/08/27 05:46:38;;;;;;;20.00;9.45;;;;;;;15.10;83.42;94306.50;1663639;85;20963;-50
2022/08/27 05:49:08;;;;;;;21.97;9.70;;;;;;;15.19;83.25;94303.56;1663657;85;21019;-50
2022/08/27 05:51:36;;;;;;;21.68;10.10;;;;;;;15.32;83.29;94305.38;1664043;86;21140;-50
2022/08/27 05:54:13;;;;;;;15.40;9.28;;;;;;;15.49;83.17;94311.86;1652021;86;20998;-49
2022/08/27 05:56:38;;;;;;;19.32;10.23;;;;;;;15.66;82.35;94309.23;1663336;85;20975;-49
2022/08/27 06:01:53;;;;;;;20.52;9.83;;;;;;;15.84;81.34;94302.74;1663428;86;21117;-49
2022/08/27 06:04:22;;;;;;;28.17;11.33;;;;;;;16.00;81.04;94295.19;1641142;86;21247;-48
2022/08/27 06:06:51;;;;;;;16.85;9.75;;;;;;;16.17;80.40;94306.41;1663737;85;21143;-49
2022/08/27 06:09:22;;;;;;;30.92;10.35;;;;;;;16.32;79.80;94306.38;1663430;86;21015;-50
2022/08/27 06:11:53;;;;;;;20.17;9.98;;;;;;;16.48;79.22;94304.38;1663024;86;21053;-49
2022/08/27 06:14:21;;;;;;;14.40;8.53;;;;;;;16.65;78.34;94305.23;1674606;85;21081;-50
2022/08/27 06:16:49;;;;;;;14.73;7.80;;;;;;;16.75;77.14;94305.18;1663724;86;21194;-50
2022/08/27 06:19:17;;;;;;;20.35;7.50;;;;;;;16.80;75.61;94293.33;1663479;86;20967;-50
2022/08/27 06:21:45;;;;;;;23.42;10.20;;;;;;;16.82;74.98;94302.70;1641168;86;20978;-50
2022/08/27 06:24:13;;;;;;;29.00;9.15;;;;;;;16.86;74.64;94294.88;1663179;86;20990;-49
2022/08/27 06:26:43;;;;;;;15.25;8.65;;;;;;;16.92;74.41;94303.25;1663029;84;21045;-49
2022/08/27 06:29:11;;;;;;;21.45;10.05;;;;;;;16.98;74.42;94304.80;1640862;86;21116;-50
2022/08/27 06:31:40;;;;;;;21.68;10.98;;;;;;;17.06;74.51;94299.52;1663333;85;21475;-51
2022/08/27 06:34:08;;;;;;;21.95;9.53;;;;;;;17.19;74.67;94299.80;1663567;86;20982;-50
2022/08/27 06:36:39;;;;;;;23.95;9.85;;;;;;;17.34;74.69;94300.40;1663977;85;20955;-50
2022/08/27 06:39:07;;;;;;;22.00;9.25;;;;;;;17.50;74.16;94305.25;1663514;86;20962;-51
2022/08/27 06:41:35;;;;;;;15.03;7.92;;;;;;;17.60;73.55;94301.73;1663426;86;21400;-49
2022/08/27 06:44:05;;;;;;;23.47;9.53;;;;;;;17.67;73.04;94301.22;1662506;85;21015;-50
2022/08/27 06:46:33;;;;;;;19.92;9.38;;;;;;;17.74;72.23;94304.15;1652162;86;21486;-50
2022/08/27 06:49:02;;;;;;;38.40;11.38;;;;;;;17.83;72.13;94301.14;1663356;86;21097;-49
2022/08/27 06:51:32;;;;;;;23.55;8.80;;;;;;;17.94;71.93;94294.17;1674781;85;21084;-50
2022/08/27 06:54:05;;;;;;;22.52;8.40;;;;;;;18.09;71.46;94291.91;1663658;85;21187;-51
2022/08/27 06:56:34;;;;;;;28.80;8.63;;;;;;;18.22;70.45;94293.69;1663302;85;21059;-50
2022/08/27 06:59:04;;;;;;;15.10;7.80;;;;;;;18.32;69.47;94292.17;1640901;86;21522;-49
2022/08/27 07:01:35;;;;;;;9.50;7.53;;;;;;;18.40;68.84;94291.80;1663550;86;21030;-49
2022/08/27 07:04:06;;;;;;;17.23;8.05;;;;;;;18.49;68.20;94290.13;1663328;86;21006;-50
2022/08/27 07:06:35;;;;;;;23.67;8.88;;;;;;;18.56;67.44;94284.67;1664017;85;21897;-50
2022/08/27 07:09:04;;;;;;;14.38;8.08;;;;;;;18.66;68.27;94283.89;1663641;85;21026;-50
2022/08/27 07:11:32;;;;;;;15.32;6.60;;;;;;;18.78;67.91;94283.22;1663444;84;21482;-50
2022/08/27 07:14:01;;;;;;;21.68;8.13;;;;;;;18.90;67.55;94274.34;1663588;86;21145;-51
2022/08/27 07:16:29;;;;;;;24.65;8.63;;;;;;;19.05;67.08;94282.39;1663734;84;20967;-49
2022/08/27 07:18:58;;;;;;;18.12;8.18;;;;;;;19.16;67.03;94280.34;1663388;86;21294;-49
2022/08/27 07:21:26;;;;;;;24.37;9.08;;;;;;;19.30;66.81;94279.89;1663643;84;20994;-51
2022/08/27 07:23:57;;;;;;;26.50;9.78;;;;;;;19.43;66.64;94271.72;1663637;86;21026;-50
2022/08/27 07:26:24;;;;;;;31.07;8.38;;;;;;;19.54;66.58;94269.63;1663241;85;21034;-49
2022/08/27 07:28:52;;;;;;;14.78;8.50;;;;;;;19.67;65.83;94270.42;1663563;85;20991;-50
2022/08/27 07:31:22;;;;;;;15.28;7.78;;;;;;;19.79;65.42;94267.06;1663609;85;21203;-50
2022/08/27 07:33:51;;;;;;;14.47;7.12;;;;;;;19.89;64.88;94257.08;1663394;85;21438;-49
2022/08/27 07:36:20;;;;;;;13.95;7.10;;;;;;;19.99;63.93;94256.89;1651739;86;21439;-50
2022/08/27 07:38:48;;;;;;;14.40;6.87;;;;;;;20.08;63.54;94258.63;1645006;87;20954;-50
2022/08/27 07:41:16;;;;;;;15.43;7.35;;;;;;;20.15;63.14;94253.21;1644773;87;21518;-49
2022/08/27 07:46:31;;;;;;;13.15;6.30;;;;;;;20.34;62.24;94255.48;1644700;87;21044;-49
2022/08/27 07:48:59;;;;;;;17.10;7.03;;;;;;;20.46;61.90;94255.48;1645130;86;21455;-50
2022/08/27 07:51:35;;;;;;;20.35;7.00;;;;;;;20.55;61.95;94250.30;1644751;85;20982;-51
2022/08/27 07:53:58;;;;;;;20.27;7.35;;;;;;;20.66;61.39;94250.83;1643179;85;20974;-49
2022/08/27 07:56:28;;;;;;;11.70;6.53;;;;;;;20.78;61.06;94248.78;1644760;85;21285;-49
2022/08/27 07:58:56;;;;;;;20.45;6.85;;;;;;;20.92;60.32;94247.64;1644954;85;20998;-50
2022/08/27 08:01:24;;;;;;;20.17;6.83;;;;;;;21.05;59.51;94246.98;1644750;85;21137;-49
2022/08/27 08:03:52;;;;;;;18.45;6.70;;;;;;;21.14;59.20;94248.03;1644733;85;21064;-50
2022/08/27 08:06:20;;;;;;;26.02;7.42;;;;;;;21.24;58.91;94248.53;1644983;87;21033;-49
2022/08/27 08:08:48;;;;;;;16.20;6.92;;;;;;;21.37;58.95;94240.86;1644876;85;21258;-50
2022/08/27 08:11:17;;;;;;;10.00;6.25;;;;;;;21.46;57.65;94242.64;1624527;87;20950;-49
2022/08/27 08:13:46;;;;;;;18.77;6.80;;;;;;;21.60;57.54;94233.66;1644876;85;20993;-49
2022/08/27 08:16:15;;;;;;;17.67;6.85;;;;;;;21.70;57.32;94238.41;1623182;87;21489;-49
2022/08/27 08:18:43;;;;;;;9.45;6.08;;;;;;;21.82;56.89;94235.53;1644762;87;21006;-51
2022/08/27 08:21:12;;;;;;;16.50;7.35;;;;;;;21.94;56.12;94229.88;1645069;85;21203;-49
2022/08/27 08:23:41;;;;;;;18.02;8.40;;;;;;;22.06;55.41;94228.39;1644778;87;21139;-49
2022/08/27 08:26:09;;;;;;;16.17;8.08;;;;;;;22.17;55.26;94228.99;1645057;86;20998;-50
2022/08/27 08:28:38;;;;;;;16.35;7.90;;;;;;;22.32;55.58;94229.89;1644846;87;21018;-49
2022/08/27 08:31:06;;;;;;;14.33;7.17;;;;;;;22.45;55.33;94229.30;1644848;87;20982;-50
2022/08/27 08:33:35;;;;;;;22.85;7.30;;;;;;;22.58;55.42;94220.91;1644886;85;21779;-51
2022/08/27 08:36:08;;;;;;;24.95;8.53;;;;;;;22.72;55.50;94219.63;1645039;85;21473;-49
2022/08/27 08:38:37;;;;;;;22.22;7.72;;;;;;;22.86;54.97;94214.78;1644731;87;21061;-50
2022/08/27 08:41:06;;;;;;;20.95;6.92;;;;;;;23.00;55.27;94221.91;1644787;85;21058;-51
2022/08/27 08:43:38;;;;;;;22.65;6.08;;;;;;;23.15;55.31;94218.67;1645049;85;21120;-50
2022/08/27 08:46:16;;;;;;;20.60;7.58;;;;;;;23.33;52.78;94217.02;1624164;87;21275;-49
2022/08/27 08:48:48;;;;;;;15.13;7.20;;;;;;;23.46;52.35;94218.41;1619968;85;20989;-51
2022/08/27 08:51:23;;;;;;;20.08;9.20;;;;;;;23.63;51.82;94218.80;1644897;87;20970;-49
2022/08/27 08:54:04;;;;;;;31.10;10.10;;;;;;;23.77;52.18;94202.75;1643998;87;21052;-49
2022/08/27 08:56:49;;;;;;;33.73;10.68;;;;;;;23.94;52.25;94208.02;1644775;85;21021;-50
2022/08/27 08:59:30;;;;;;;24.43;8.38;;;;;;;24.14;52.57;94209.42;1644725;87;21274;-51
2022/08/27 09:01:58;;;;;;;19.17;7.95;;;;;;;24.33;51.86;94205.75;1624061;87;20967;-50
2022/08/27 09:04:27;;;;;;;18.87;10.03;;;;;;;24.48;51.41;94206.66;1645350;87;21055;-50
2022/08/27 09:07:20;;;;;;;28.98;10.13;;;;;;;24.63;51.04;94203.23;1644724;87;21062;-49
2022/08/27 09:09:58;;;;;;;18.73;6.65;;;;;;;24.77;51.23;94202.57;1645240;86;20954;-50
2022/08/27 09:12:29;;;;;;;18.30;7.58;;;;;;;24.96;50.74;94209.37;1644407;87;21274;-52
2022/08/27 09:15:13;;;;;;;22.30;8.00;;;;;;;25.10;50.45;94203.73;1644873;85;21014;-50
2022/08/27 09:17:41;;;;;;;14.93;6.85;;;;;;;25.25;50.47;94202.41;1645071;87;21076;-50
2022/08/27 09:20:10;;;;;;;14.23;5.45;;;;;;;25.46;50.27;94198.88;1623179;86;20981;-50
2022/08/27 09:23:12;;;;;;;20.80;6.65;;;;;;;25.61;50.73;94191.87;1644753;85;21449;-50
2022/08/27 09:25:42;;;;;;;17.55;5.58;;;;;;;25.77;50.15;94190.60;1644778;85;21260;-50
2022/08/27 09:31:06;;;;;;;;;;;;;;;26.01;47.53;94187.42;1647137;87;21053;-49
2022/08/27 09:33:34;;;;;;;16.50;5.30;;;;;;;26.17;48.55;94192.42;1644978;85;20159;-49
2022/08/27 09:36:04;;;;;;;19.07;5.08;;;;;;;26.26;48.49;94184.16;1644721;87;21090;-51
2022/08/27 09:38:33;;;;;;;19.95;5.45;;;;;;;26.37;48.31;94180.21;1644825;85;21908;-49
2022/08/27 09:41:08;;;;;;;13.95;6.20;;;;;;;26.47;47.03;94189.63;1644780;86;21144;-50
2022/08/27 09:43:42;;;;;;;15.08;6.15;;;;;;;26.56;47.76;94182.80;1644721;87;20974;-52
2022/08/27 09:46:22;;;;;;;16.90;5.62;;;;;;;26.67;47.59;94180.25;1624650;87;20986;-50
2022/08/27 09:48:51;;;;;;;23.67;5.45;;;;;;;26.83;47.26;94175.42;1646155;86;21549;-50
2022/08/27 09:51:27;;;;;;;18.10;5.78;;;;;;;27.04;46.46;94179.44;1624261;87;21181;-50
2022/08/27 09:53:58;;;;;;;13.93;4.75;;;;;;;27.27;46.88;94180.16;1644655;87;21513;-50
2022/08/27 09:56:35;;;;;;;21.00;5.67;;;;;;;27.53;46.61;94178.26;1644305;87;21423;-51
2022/08/27 09:59:09;;;;;;;21.17;5.15;;;;;;;27.77;45.16;94185.44;1646029;85;21038;-51
2022/08/27 10:01:52;;;;;;;25.48;5.25;;;;;;;28.02;42.81;94170.03;1645288;85;20966;-50
2022/08/27 10:04:36;;;;;;;20.70;4.35;;;;;;;28.25;41.95;94174.86;1626232;87;21157;-51
2022/08/27 10:07:36;;;;;;;17.60;4.47;;;;;;;28.52;43.39;94170.18;1644542;85;21022;-50
2022/08/27 10:10:30;;;;;;;19.23;4.95;;;;;;;28.83;42.09;94167.83;1622965;87;21041;-50
2022/08/27 10:13:12;;;;;;;19.60;4.58;;;;;;;29.11;40.09;94168.14;1645016;85;21102;-50
2022/08/27 10:15:47;;;;;;;;;;;;;;;29.38;40.27;94169.66;1647290;87;21065;-49
2022/08/27 10:18:26;;;;;;;13.50;4.55;;;;;;;29.62;40.28;94171.66;1645075;85;21267;-51
2022/08/27 10:21:26;;;;;;;14.53;4.33;;;;;;;29.88;39.43;94161.77;1644893;85;21041;-49
2022/08/27 10:24:27;;;;;;;24.45;5.33;;;;;;;30.20;38.34;94166.55;1644673;86;21005;-51
2022/08/27 10:27:12;;;;;;;21.27;5.10;;;;;;;30.55;38.12;94161.47;1644810;85;21429;-51
2022/08/27 10:30:09;;;;;;;28.15;5.00;;;;;;;30.95;36.30;94168.20;1628229;85;20977;-50
2022/08/27 10:33:07;;;;;;;23.20;5.10;;;;;;;31.36;35.50;94164.91;1622812;85;21092;-50
2022/08/27 10:36:17;;;;;;;18.85;4.83;;;;;;;31.81;35.02;94161.94;1644676;86;21054;-52
2022/08/27 10:39:34;;;;;;;20.40;4.40;;;;;;;32.21;34.31;94162.06;1644743;85;21022;-50
2022/08/27 10:42:42;;;;;;;20.77;4.60;;;;;;;32.51;33.06;94159.92;1645018;87;21022;-50
2022/08/27 10:45:17;;;;;;;15.30;4.50;;;;;;;32.90;32.75;94166.30;1644259;85;21141;-51
2022/08/27 10:48:08;;;;;;;19.48;3.90;;;;;;;33.30;32.21;94166.23;1624601;86;21724;-50
2022/08/27 10:50:54;;;;;;;38.95;6.08;;;;;;;33.62;33.00;94169.07;1644946;85;21010;-49
2022/08/27 10:53:38;;;;;;;21.35;4.83;;;;;;;33.93;30.95;94161.17;1644424;85;21057;-49
2022/08/27 10:56:20;;;;;;;30.40;4.55;;;;;;;34.18;31.95;94165.75;1644875;85;21010;-51
2022/08/27 10:59:20;;;;;;;20.48;4.03;;;;;;;34.51;30.57;94163.58;1644287;87;20962;-50
2022/08/27 11:02:23;;;;;;;27.70;5.35;;;;;;;34.77;30.82;94159.55;1644734;85;21283;-54
2022/08/27 11:04:54;;;;;;;18.25;4.67;;;;;;;34.96;30.07;94162.83;1645146;85;20962;-50
2022/08/27 11:07:37;;;;;;;19.73;4.37;;;;;;;35.18;30.87;94160.67;1645205;86;21065;-50
2022/08/27 11:10:23;;;;;;;12.88;4.10;;;;;;;35.33;30.12;94168.73;1644806;85;21184;-50
2022/08/27 11:12:55;;;;;;;27.60;5.00;;;;;;;35.39;30.13;94159.08;1644819;85;21036;-51
2022/08/27 11:15:28;;;;;;;17.98;4.22;;;;;;;35.62;29.43;94167.63;1645236;85;21147;-50
2022/08/27 11:18:16;;;;;;;19.73;4.60;;;;;;;35.88;30.32;94164.88;1644773;85;21023;-52
2022/08/27 11:21:26;;;;;;;23.60;4.50;;;;;;;36.13;29.48;94162.05;1644782;87;20973;-50
2022/08/27 11:24:04;;;;;;;28.77;5.25;;;;;;;36.36;28.83;94174.81;1645157;85;26577;-50
2022/08/27 11:26:32;;;;;;;21.00;4.60;;;;;;;36.72;27.93;94166.82;1605317;87;21101;-50
2022/08/27 11:29:05;;;;;;;23.20;5.50;;;;;;;36.86;28.02;94179.07;1644881;85;21053;-49
2022/08/27 11:31:50;;;;;;;15.43;5.15;;;;;;;36.79;27.86;94171.53;1644992;85;21018;-50
2022/08/27 11:34:35;;;;;;;13.90;4.37;;;;;;;36.82;27.34;94161.65;1644206;85;21003;-50
2022/08/27 11:37:41;;;;;;;15.18;4.37;;;;;;;36.93;27.95;94176.58;1644753;87;21009;-51
2022/08/27 11:40:26;;;;;;;18.32;4.90;;;;;;;36.88;27.46;94168.46;1645086;85;21002;-50
2022/08/27 11:42:58;;;;;;;17.57;4.70;;;;;;;36.96;27.11;94165.28;1645048;87;23079;-50
2022/08/27 11:45:37;;;;;;;15.40;3.77;;;;;;;37.10;28.01;94163.17;1644616;85;21001;-50
2022/08/27 11:48:04;;;;;;;27.82;4.83;;;;;;;37.17;27.47;94163.57;1644560;86;21109;-51
2022/08/27 11:50:33;;;;;;;23.47;4.78;;;;;;;37.19;27.47;94167.98;1643484;87;21084;-50
2022/08/27 11:53:07;;;;;;;17.07;4.60;;;;;;;37.29;26.75;94168.49;1624645;87;21430;-50
2022/08/27 11:55:38;;;;;;;18.05;4.53;;;;;;;37.44;26.34;94162.11;1644903;87;21081;-51
2022/08/27 11:58:21;;;;;;;;;;;;;;;37.52;27.25;94164.02;1647463;87;21585;-50
2022/08/27 12:00:52;;;;;;;13.70;4.67;;;;;;;37.67;26.01;94156.91;1644930;87;20419;-50